sensor_id;sensor_type;location;lat;lon;timestamp;temperature;humidity
31379;DHT22;61664;48.112;11.662;2022-12-07T00:01:38;7.10;80.60
31379;DHT22;61664;48.112;11.662;2022-12-07T00:04:09;7.10;80.20
31379;DHT22;61664;48.112;11.662;2022-12-07T00:06:44;7.10;80.50
31379;DHT22;61664;48.112;11.662;2022-12-07T00:09:14;7.20;80.40
31379;DHT22;61664;48.112;11.662;2022-12-07T00:11:43;7.10;80.30
31379;DHT22;61664;48.112;11.662;2022-12-07T00:14:15;7.20;80.50
31379;DHT22;61664;48.112;11.662;2022-12-07T00:16:43;7.20;80.00
31379;DHT22;61664;48.112;11.662;2022-12-07T00:19:12;7.10;80.70
31379;DHT22;61664;48.112;11.662;2022-12-07T00:21:40;7.10;80.40
31379;DHT22;61664;48.112;11.662;2022-12-07T00:24:08;7.10;80.60
31379;DHT22;61664;48.112;11.662;2022-12-07T00:26:38;7.00;80.50
31379;DHT22;61664;48.112;11.662;2022-12-07T00:29:17;7.00;80.30
31379;DHT22;61664;48.112;11.662;2022-12-07T00:31:45;7.10;79.40
31379;DHT22;61664;48.112;11.662;2022-12-07T00:34:14;7.00;80.40
31379;DHT22;61664;48.112;11.662;2022-12-07T00:36:43;7.10;80.40
31379;DHT22;61664;48.112;11.662;2022-12-07T00:39:10;7.10;80.40
31379;DHT22;61664;48.112;11.662;2022-12-07T00:41:37;7.10;80.40
31379;DHT22;61664;48.112;11.662;2022-12-07T00:44:04;7.00;80.30
31379;DHT22;61664;48.112;11.662;2022-12-07T00:46:31;7.10;80.50
31379;DHT22;61664;48.112;11.662;2022-12-07T00:48:58;7.10;80.60
31379;DHT22;61664;48.112;11.662;2022-12-07T00:51:25;7.10;80.60
31379;DHT22;61664;48.112;11.662;2022-12-07T00:53:53;7.10;80.50
31379;DHT22;61664;48.112;11.662;2022-12-07T00:56:25;7.10;80.40
31379;DHT22;61664;48.112;11.662;2022-12-07T00:58:55;7.10;79.60
31379;DHT22;61664;48.112;11.662;2022-12-07T01:01:28;7.10;80.00
31379;DHT22;61664;48.112;11.662;2022-12-07T01:03:57;7.10;79.90
31379;DHT22;61664;48.112;11.662;2022-12-07T01:06:25;7.10;76.50
31379;DHT22;61664;48.112;11.662;2022-12-07T01:08:52;7.10;79.70
31379;DHT22;61664;48.112;11.662;2022-12-07T01:11:22;7.00;79.70
31379;DHT22;61664;48.112;11.662;2022-12-07T01:13:52;7.20;79.50
31379;DHT22;61664;48.112;11.662;2022-12-07T01:16:22;7.00;79.70
31379;DHT22;61664;48.112;11.662;2022-12-07T01:18:52;7.00;79.80
31379;DHT22;61664;48.112;11.662;2022-12-07T01:21:27;7.00;79.80
31379;DHT22;61664;48.112;11.662;2022-12-07T01:23:59;7.00;79.80
31379;DHT22;61664;48.112;11.662;2022-12-07T01:26:27;7.00;79.50
31379;DHT22;61664;48.112;11.662;2022-12-07T01:28:54;7.00;80.10
31379;DHT22;61664;48.112;11.662;2022-12-07T01:31:24;7.00;80.20
31379;DHT22;61664;48.112;11.662;2022-12-07T01:33:55;7.00;80.20
31379;DHT22;61664;48.112;11.662;2022-12-07T01:38:59;7.00;80.00
31379;DHT22;61664;48.112;11.662;2022-12-07T01:41:31;7.00;79.30
31379;DHT22;61664;48.112;11.662;2022-12-07T01:44:26;7.00;79.70
31379;DHT22;61664;48.112;11.662;2022-12-07T01:47:01;7.00;76.60
31379;DHT22;61664;48.112;11.662;2022-12-07T01:49:47;7.00;78.70
31379;DHT22;61664;48.112;11.662;2022-12-07T01:52:28;7.00;76.60
31379;DHT22;61664;48.112;11.662;2022-12-07T01:55:03;6.90;76.90
31379;DHT22;61664;48.112;11.662;2022-12-07T01:57:34;6.90;78.50
31379;DHT22;61664;48.112;11.662;2022-12-07T02:00:06;6.90;79.20
31379;DHT22;61664;48.112;11.662;2022-12-07T02:02:38;6.80;79.40
31379;DHT22;61664;48.112;11.662;2022-12-07T02:05:09;6.80;79.20
31379;DHT22;61664;48.112;11.662;2022-12-07T02:07:38;6.80;79.60
31379;DHT22;61664;48.112;11.662;2022-12-07T02:10:31;6.80;79.50
31379;DHT22;61664;48.112;11.662;2022-12-07T02:13:08;6.80;76.60
31379;DHT22;61664;48.112;11.662;2022-12-07T02:15:55;6.80;79.90
31379;DHT22;61664;48.112;11.662;2022-12-07T02:27:27;6.80;77.30
31379;DHT22;61664;48.112;11.662;2022-12-07T02:30:21;6.80;76.70
31379;DHT22;61664;48.112;11.662;2022-12-07T02:32:56;6.70;78.90
31379;DHT22;61664;48.112;11.662;2022-12-07T02:35:40;6.70;78.80
31379;DHT22;61664;48.112;11.662;2022-12-07T02:38:43;6.70;77.90
31379;DHT22;61664;48.112;11.662;2022-12-07T02:41:16;6.70;77.50
31379;DHT22;61664;48.112;11.662;2022-12-07T02:43:57;6.70;80.10
31379;DHT22;61664;48.112;11.662;2022-12-07T02:46:37;6.70;78.90
31379;DHT22;61664;48.112;11.662;2022-12-07T02:49:08;6.80;79.40
31379;DHT22;61664;48.112;11.662;2022-12-07T02:51:43;6.80;80.10
31379;DHT22;61664;48.112;11.662;2022-12-07T02:54:17;6.80;79.10
31379;DHT22;61664;48.112;11.662;2022-12-07T02:57:07;6.80;79.30
31379;DHT22;61664;48.112;11.662;2022-12-07T03:03:00;6.80;78.40
31379;DHT22;61664;48.112;11.662;2022-12-07T03:11:03;6.70;79.00
31379;DHT22;61664;48.112;11.662;2022-12-07T03:14:08;6.80;80.10
31379;DHT22;61664;48.112;11.662;2022-12-07T03:17:14;6.70;77.30
31379;DHT22;61664;48.112;11.662;2022-12-07T03:19:46;6.80;77.50
31379;DHT22;61664;48.112;11.662;2022-12-07T03:22:17;6.80;80.30
31379;DHT22;61664;48.112;11.662;2022-12-07T03:24:49;6.80;80.10
31379;DHT22;61664;48.112;11.662;2022-12-07T03:27:23;6.80;79.80
31379;DHT22;61664;48.112;11.662;2022-12-07T03:30:15;6.80;80.00
31379;DHT22;61664;48.112;11.662;2022-12-07T03:33:08;6.80;77.30
31379;DHT22;61664;48.112;11.662;2022-12-07T03:35:55;6.80;79.60
31379;DHT22;61664;48.112;11.662;2022-12-07T03:39:03;6.80;78.50
31379;DHT22;61664;48.112;11.662;2022-12-07T03:41:40;6.80;76.90
31379;DHT22;61664;48.112;11.662;2022-12-07T03:44:11;6.80;80.20
31379;DHT22;61664;48.112;11.662;2022-12-07T03:52:37;6.80;79.90
31379;DHT22;61664;48.112;11.662;2022-12-07T03:57:54;6.90;80.10
31379;DHT22;61664;48.112;11.662;2022-12-07T04:00:25;6.80;80.20
31379;DHT22;61664;48.112;11.662;2022-12-07T04:02:53;6.90;80.50
31379;DHT22;61664;48.112;11.662;2022-12-07T04:05:21;6.90;80.50
31379;DHT22;61664;48.112;11.662;2022-12-07T04:07:48;6.90;80.60
31379;DHT22;61664;48.112;11.662;2022-12-07T04:10:15;6.90;80.60
31379;DHT22;61664;48.112;11.662;2022-12-07T04:12:43;6.90;80.30
31379;DHT22;61664;48.112;11.662;2022-12-07T04:15:10;6.90;80.20
31379;DHT22;61664;48.112;11.662;2022-12-07T04:17:37;6.90;80.30
31379;DHT22;61664;48.112;11.662;2022-12-07T04:20:05;7.00;80.30
31379;DHT22;61664;48.112;11.662;2022-12-07T04:22:33;7.00;80.20
31379;DHT22;61664;48.112;11.662;2022-12-07T04:25:00;7.00;80.10
31379;DHT22;61664;48.112;11.662;2022-12-07T04:27:27;7.00;79.90
31379;DHT22;61664;48.112;11.662;2022-12-07T04:29:53;7.00;79.90
31379;DHT22;61664;48.112;11.662;2022-12-07T04:32:22;7.00;80.00
31379;DHT22;61664;48.112;11.662;2022-12-07T04:34:50;7.00;79.90
31379;DHT22;61664;48.112;11.662;2022-12-07T04:37:22;7.00;79.80
31379;DHT22;61664;48.112;11.662;2022-12-07T04:39:49;7.00;79.70
31379;DHT22;61664;48.112;11.662;2022-12-07T04:42:16;7.00;79.70
31379;DHT22;61664;48.112;11.662;2022-12-07T04:44:43;7.00;79.70
31379;DHT22;61664;48.112;11.662;2022-12-07T04:47:11;7.00;79.60
31379;DHT22;61664;48.112;11.662;2022-12-07T04:49:38;6.90;79.60
31379;DHT22;61664;48.112;11.662;2022-12-07T04:52:05;6.90;79.60
31379;DHT22;61664;48.112;11.662;2022-12-07T04:54:31;6.90;79.40
31379;DHT22;61664;48.112;11.662;2022-12-07T04:56:58;6.80;79.20
31379;DHT22;61664;48.112;11.662;2022-12-07T04:59:25;6.80;79.20
31379;DHT22;61664;48.112;11.662;2022-12-07T05:01:52;6.80;79.40
31379;DHT22;61664;48.112;11.662;2022-12-07T05:04:19;6.80;79.40
31379;DHT22;61664;48.112;11.662;2022-12-07T05:06:46;6.80;79.40
31379;DHT22;61664;48.112;11.662;2022-12-07T05:09:13;6.70;79.40
31379;DHT22;61664;48.112;11.662;2022-12-07T05:11:40;6.80;79.30
31379;DHT22;61664;48.112;11.662;2022-12-07T05:14:16;6.70;79.30
31379;DHT22;61664;48.112;11.662;2022-12-07T05:16:48;6.60;78.30
31379;DHT22;61664;48.112;11.662;2022-12-07T05:19:18;6.60;79.50
31379;DHT22;61664;48.112;11.662;2022-12-07T05:21:45;6.60;79.70
31379;DHT22;61664;48.112;11.662;2022-12-07T05:24:13;6.70;79.70
31379;DHT22;61664;48.112;11.662;2022-12-07T05:26:42;6.60;79.50
31379;DHT22;61664;48.112;11.662;2022-12-07T05:29:12;6.60;79.40
31379;DHT22;61664;48.112;11.662;2022-12-07T05:31:40;6.50;79.20
31379;DHT22;61664;48.112;11.662;2022-12-07T05:34:08;6.50;79.60
31379;DHT22;61664;48.112;11.662;2022-12-07T05:36:35;6.40;79.70
31379;DHT22;61664;48.112;11.662;2022-12-07T05:39:02;6.40;79.70
31379;DHT22;61664;48.112;11.662;2022-12-07T05:41:29;6.40;79.60
31379;DHT22;61664;48.112;11.662;2022-12-07T05:44:15;6.40;79.80
31379;DHT22;61664;48.112;11.662;2022-12-07T05:46:42;6.30;80.00
31379;DHT22;61664;48.112;11.662;2022-12-07T05:49:09;6.30;80.20
31379;DHT22;61664;48.112;11.662;2022-12-07T05:51:36;6.30;80.40
31379;DHT22;61664;48.112;11.662;2022-12-07T05:54:03;6.30;80.40
31379;DHT22;61664;48.112;11.662;2022-12-07T05:56:30;6.30;80.30
31379;DHT22;61664;48.112;11.662;2022-12-07T05:58:57;6.20;80.00
31379;DHT22;61664;48.112;11.662;2022-12-07T06:01:42;6.20;80.00
31379;DHT22;61664;48.112;11.662;2022-12-07T06:04:09;6.20;80.20
31379;DHT22;61664;48.112;11.662;2022-12-07T06:06:36;6.20;80.00
31379;DHT22;61664;48.112;11.662;2022-12-07T06:09:04;6.20;79.90
31379;DHT22;61664;48.112;11.662;2022-12-07T06:11:33;6.10;79.80
31379;DHT22;61664;48.112;11.662;2022-12-07T06:14:19;6.30;80.30
31379;DHT22;61664;48.112;11.662;2022-12-07T06:16:46;6.10;80.30
31379;DHT22;61664;48.112;11.662;2022-12-07T06:19:13;6.10;80.40
31379;DHT22;61664;48.112;11.662;2022-12-07T06:21:40;6.00;80.50
31379;DHT22;61664;48.112;11.662;2022-12-07T06:24:07;6.10;80.70
31379;DHT22;61664;48.112;11.662;2022-12-07T06:26:37;6.00;80.80
31379;DHT22;61664;48.112;11.662;2022-12-07T06:29:05;6.00;81.00
31379;DHT22;61664;48.112;11.662;2022-12-07T06:31:32;6.00;81.00
31379;DHT22;61664;48.112;11.662;2022-12-07T06:34:00;6.10;81.00
31379;DHT22;61664;48.112;11.662;2022-12-07T06:36:29;6.10;81.10
31379;DHT22;61664;48.112;11.662;2022-12-07T06:38:57;6.10;81.10
31379;DHT22;61664;48.112;11.662;2022-12-07T06:41:27;6.10;81.10
31379;DHT22;61664;48.112;11.662;2022-12-07T06:43:54;6.10;81.20
31379;DHT22;61664;48.112;11.662;2022-12-07T06:46:22;6.10;80.90
31379;DHT22;61664;48.112;11.662;2022-12-07T06:48:50;6.10;81.10
31379;DHT22;61664;48.112;11.662;2022-12-07T06:51:17;6.20;81.20
31379;DHT22;61664;48.112;11.662;2022-12-07T06:53:44;6.10;81.10
31379;DHT22;61664;48.112;11.662;2022-12-07T06:56:11;6.10;80.90
31379;DHT22;61664;48.112;11.662;2022-12-07T06:58:39;6.10;80.90
31379;DHT22;61664;48.112;11.662;2022-12-07T07:01:13;6.10;80.80
31379;DHT22;61664;48.112;11.662;2022-12-07T07:03:42;6.10;80.10
31379;DHT22;61664;48.112;11.662;2022-12-07T07:06:11;6.10;81.10
31379;DHT22;61664;48.112;11.662;2022-12-07T07:08:39;6.10;81.20
31379;DHT22;61664;48.112;11.662;2022-12-07T07:11:07;6.10;81.30
31379;DHT22;61664;48.112;11.662;2022-12-07T07:13:35;6.00;81.00
31379;DHT22;61664;48.112;11.662;2022-12-07T07:16:02;6.10;81.20
31379;DHT22;61664;48.112;11.662;2022-12-07T07:18:29;6.10;81.20
31379;DHT22;61664;48.112;11.662;2022-12-07T07:20:56;6.10;80.90
31379;DHT22;61664;48.112;11.662;2022-12-07T07:23:23;6.10;80.80
31379;DHT22;61664;48.112;11.662;2022-12-07T07:25:50;6.10;80.80
31379;DHT22;61664;48.112;11.662;2022-12-07T07:28:17;6.10;80.70
31379;DHT22;61664;48.112;11.662;2022-12-07T07:30:45;6.10;80.80
31379;DHT22;61664;48.112;11.662;2022-12-07T07:33:12;6.10;81.20
31379;DHT22;61664;48.112;11.662;2022-12-07T07:35:39;6.10;81.40
31379;DHT22;61664;48.112;11.662;2022-12-07T07:38:06;6.10;81.30
31379;DHT22;61664;48.112;11.662;2022-12-07T07:40:33;6.10;81.20
31379;DHT22;61664;48.112;11.662;2022-12-07T07:43:01;6.10;81.40
31379;DHT22;61664;48.112;11.662;2022-12-07T07:45:28;6.00;81.20
31379;DHT22;61664;48.112;11.662;2022-12-07T07:47:56;6.10;81.00
31379;DHT22;61664;48.112;11.662;2022-12-07T07:50:23;6.20;81.20
31379;DHT22;61664;48.112;11.662;2022-12-07T07:52:50;6.10;81.10
31379;DHT22;61664;48.112;11.662;2022-12-07T07:55:17;6.20;81.00
31379;DHT22;61664;48.112;11.662;2022-12-07T07:57:45;6.20;80.80
31379;DHT22;61664;48.112;11.662;2022-12-07T08:00:20;6.20;80.70
31379;DHT22;61664;48.112;11.662;2022-12-07T08:02:48;6.10;80.50
31379;DHT22;61664;48.112;11.662;2022-12-07T08:05:15;6.10;80.70
31379;DHT22;61664;48.112;11.662;2022-12-07T08:07:42;6.10;80.80
31379;DHT22;61664;48.112;11.662;2022-12-07T08:10:11;6.10;80.50
31379;DHT22;61664;48.112;11.662;2022-12-07T08:12:41;6.10;80.10
31379;DHT22;61664;48.112;11.662;2022-12-07T08:15:29;6.00;80.30
31379;DHT22;61664;48.112;11.662;2022-12-07T08:17:57;6.00;80.30
31379;DHT22;61664;48.112;11.662;2022-12-07T08:20:25;6.00;80.50
31379;DHT22;61664;48.112;11.662;2022-12-07T08:22:52;6.00;80.40
31379;DHT22;61664;48.112;11.662;2022-12-07T08:25:19;5.90;80.70
31379;DHT22;61664;48.112;11.662;2022-12-07T08:27:47;6.00;81.20
31379;DHT22;61664;48.112;11.662;2022-12-07T08:30:14;5.90;81.20
31379;DHT22;61664;48.112;11.662;2022-12-07T08:32:42;5.90;81.00
31379;DHT22;61664;48.112;11.662;2022-12-07T08:35:10;5.90;81.00
31379;DHT22;61664;48.112;11.662;2022-12-07T08:37:37;5.90;81.30
31379;DHT22;61664;48.112;11.662;2022-12-07T08:40:06;5.90;81.20
31379;DHT22;61664;48.112;11.662;2022-12-07T08:42:34;6.00;81.00
31379;DHT22;61664;48.112;11.662;2022-12-07T08:45:09;6.00;81.50
31379;DHT22;61664;48.112;11.662;2022-12-07T08:47:46;6.00;81.60
31379;DHT22;61664;48.112;11.662;2022-12-07T08:50:21;6.00;81.50
31379;DHT22;61664;48.112;11.662;2022-12-07T08:52:51;6.00;81.50
31379;DHT22;61664;48.112;11.662;2022-12-07T08:55:21;6.10;81.70
31379;DHT22;61664;48.112;11.662;2022-12-07T08:57:48;6.10;81.90
31379;DHT22;61664;48.112;11.662;2022-12-07T09:00:16;6.10;82.30
31379;DHT22;61664;48.112;11.662;2022-12-07T09:02:46;6.20;82.10
31379;DHT22;61664;48.112;11.662;2022-12-07T09:05:13;6.30;81.80
31379;DHT22;61664;48.112;11.662;2022-12-07T09:07:45;6.30;82.00
31379;DHT22;61664;48.112;11.662;2022-12-07T09:10:15;6.30;81.90
31379;DHT22;61664;48.112;11.662;2022-12-07T09:12:41;6.40;81.50
31379;DHT22;61664;48.112;11.662;2022-12-07T09:15:08;6.40;81.60
31379;DHT22;61664;48.112;11.662;2022-12-07T09:17:36;6.40;81.60
31379;DHT22;61664;48.112;11.662;2022-12-07T09:20:04;6.40;81.90
31379;DHT22;61664;48.112;11.662;2022-12-07T09:22:33;6.40;82.10
31379;DHT22;61664;48.112;11.662;2022-12-07T09:25:00;6.50;81.90
31379;DHT22;61664;48.112;11.662;2022-12-07T09:27:28;6.50;82.20
31379;DHT22;61664;48.112;11.662;2022-12-07T09:29:55;6.60;82.00
31379;DHT22;61664;48.112;11.662;2022-12-07T09:32:22;6.60;82.00
31379;DHT22;61664;48.112;11.662;2022-12-07T09:34:49;6.60;82.30
31379;DHT22;61664;48.112;11.662;2022-12-07T09:37:16;6.70;82.40
31379;DHT22;61664;48.112;11.662;2022-12-07T09:39:44;6.70;81.70
31379;DHT22;61664;48.112;11.662;2022-12-07T09:42:36;6.70;81.30
31379;DHT22;61664;48.112;11.662;2022-12-07T09:45:13;6.80;76.50
31379;DHT22;61664;48.112;11.662;2022-12-07T09:47:52;6.80;80.80
31379;DHT22;61664;48.112;11.662;2022-12-07T09:50:23;6.90;82.10
31379;DHT22;61664;48.112;11.662;2022-12-07T09:52:53;6.90;81.90
31379;DHT22;61664;48.112;11.662;2022-12-07T09:55:29;7.00;81.60
31379;DHT22;61664;48.112;11.662;2022-12-07T09:57:58;7.10;80.60
31379;DHT22;61664;48.112;11.662;2022-12-07T10:00:25;7.10;81.80
31379;DHT22;61664;48.112;11.662;2022-12-07T10:03:00;7.10;81.50
31379;DHT22;61664;48.112;11.662;2022-12-07T10:05:49;7.20;80.80
31379;DHT22;61664;48.112;11.662;2022-12-07T10:08:18;7.30;76.40
31379;DHT22;61664;48.112;11.662;2022-12-07T10:10:52;7.50;82.00
31379;DHT22;61664;48.112;11.662;2022-12-07T10:13:37;7.40;80.30
31379;DHT22;61664;48.112;11.662;2022-12-07T10:16:25;7.50;78.90
31379;DHT22;61664;48.112;11.662;2022-12-07T10:18:55;7.50;82.40
31379;DHT22;61664;48.112;11.662;2022-12-07T10:21:26;7.60;83.20
31379;DHT22;61664;48.112;11.662;2022-12-07T10:29:31;7.90;82.60
31379;DHT22;61664;48.112;11.662;2022-12-07T10:34:42;8.00;79.60
31379;DHT22;61664;48.112;11.662;2022-12-07T10:37:19;8.10;80.60
31379;DHT22;61664;48.112;11.662;2022-12-07T10:39:50;8.10;80.10
31379;DHT22;61664;48.112;11.662;2022-12-07T10:42:23;8.10;80.50
31379;DHT22;61664;48.112;11.662;2022-12-07T10:45:17;8.10;79.30
31379;DHT22;61664;48.112;11.662;2022-12-07T10:51:18;8.20;73.60
31379;DHT22;61664;48.112;11.662;2022-12-07T11:00:13;8.20;74.70
31379;DHT22;61664;48.112;11.662;2022-12-07T11:21:23;8.40;73.00
31379;DHT22;61664;48.112;11.662;2022-12-07T11:35:36;9.00;78.80
31379;DHT22;61664;48.112;11.662;2022-12-07T11:38:16;9.10;78.90
31379;DHT22;61664;48.112;11.662;2022-12-07T11:40:55;9.20;80.10
31379;DHT22;61664;48.112;11.662;2022-12-07T11:43:59;9.30;81.20
31379;DHT22;61664;48.112;11.662;2022-12-07T11:46:58;9.30;75.20
31379;DHT22;61664;48.112;11.662;2022-12-07T11:49:43;9.30;71.70
31379;DHT22;61664;48.112;11.662;2022-12-07T11:52:27;9.40;78.80
31379;DHT22;61664;48.112;11.662;2022-12-07T11:55:18;9.40;75.60
31379;DHT22;61664;48.112;11.662;2022-12-07T11:57:58;9.40;77.80
31379;DHT22;61664;48.112;11.662;2022-12-07T12:00:37;9.30;76.30
31379;DHT22;61664;48.112;11.662;2022-12-07T12:03:12;9.30;77.80
31379;DHT22;61664;48.112;11.662;2022-12-07T12:05:46;9.40;75.90
31379;DHT22;61664;48.112;11.662;2022-12-07T12:08:31;9.10;77.50
31379;DHT22;61664;48.112;11.662;2022-12-07T12:20:35;8.80;74.50
31379;DHT22;61664;48.112;11.662;2022-12-07T12:23:27;8.60;72.60
31379;DHT22;61664;48.112;11.662;2022-12-07T12:26:27;8.60;75.80
31379;DHT22;61664;48.112;11.662;2022-12-07T12:29:29;8.60;75.40
31379;DHT22;61664;48.112;11.662;2022-12-07T12:32:12;8.60;72.00
31379;DHT22;61664;48.112;11.662;2022-12-07T12:37:44;8.70;75.50
31379;DHT22;61664;48.112;11.662;2022-12-07T12:42:58;8.50;77.50
31379;DHT22;61664;48.112;11.662;2022-12-07T12:45:30;8.40;72.20
31379;DHT22;61664;48.112;11.662;2022-12-07T12:50:47;8.30;78.50
31379;DHT22;61664;48.112;11.662;2022-12-07T12:56:21;8.20;78.40
31379;DHT22;61664;48.112;11.662;2022-12-07T12:59:28;8.10;73.30
31379;DHT22;61664;48.112;11.662;2022-12-07T13:02:26;8.10;72.80
31379;DHT22;61664;48.112;11.662;2022-12-07T13:04:59;8.10;74.80
31379;DHT22;61664;48.112;11.662;2022-12-07T13:15:39;8.10;74.80
31379;DHT22;61664;48.112;11.662;2022-12-07T13:18:44;8.10;79.40
31379;DHT22;61664;48.112;11.662;2022-12-07T13:29:16;8.20;76.90
31379;DHT22;61664;48.112;11.662;2022-12-07T13:31:48;8.30;74.40
31379;DHT22;61664;48.112;11.662;2022-12-07T13:34:28;8.30;79.80
31379;DHT22;61664;48.112;11.662;2022-12-07T13:37:02;8.40;77.30
31379;DHT22;61664;48.112;11.662;2022-12-07T13:39:49;8.50;81.60
31379;DHT22;61664;48.112;11.662;2022-12-07T13:42:27;8.60;76.70
31379;DHT22;61664;48.112;11.662;2022-12-07T13:45:01;8.60;74.80
31379;DHT22;61664;48.112;11.662;2022-12-07T13:47:54;8.60;76.00
31379;DHT22;61664;48.112;11.662;2022-12-07T13:50:28;8.60;73.50
31379;DHT22;61664;48.112;11.662;2022-12-07T13:52:59;8.50;75.20
31379;DHT22;61664;48.112;11.662;2022-12-07T13:55:28;8.40;75.60
31379;DHT22;61664;48.112;11.662;2022-12-07T13:57:56;8.30;76.30
31379;DHT22;61664;48.112;11.662;2022-12-07T14:00:28;8.40;77.20
31379;DHT22;61664;48.112;11.662;2022-12-07T14:03:00;8.30;75.70
31379;DHT22;61664;48.112;11.662;2022-12-07T14:05:34;8.30;77.40
31379;DHT22;61664;48.112;11.662;2022-12-07T14:08:20;8.20;76.40
31379;DHT22;61664;48.112;11.662;2022-12-07T14:16:36;8.30;70.50
31379;DHT22;61664;48.112;11.662;2022-12-07T14:19:05;8.20;76.60
31379;DHT22;61664;48.112;11.662;2022-12-07T14:22:17;8.20;77.10
31379;DHT22;61664;48.112;11.662;2022-12-07T14:24:59;8.20;71.70
31379;DHT22;61664;48.112;11.662;2022-12-07T14:27:35;8.10;74.90
31379;DHT22;61664;48.112;11.662;2022-12-07T14:30:05;8.00;76.00
31379;DHT22;61664;48.112;11.662;2022-12-07T14:32:35;8.00;75.70
31379;DHT22;61664;48.112;11.662;2022-12-07T14:35:12;7.90;75.50
31379;DHT22;61664;48.112;11.662;2022-12-07T14:37:41;7.90;75.60
31379;DHT22;61664;48.112;11.662;2022-12-07T14:40:16;7.90;77.20
31379;DHT22;61664;48.112;11.662;2022-12-07T14:42:47;7.80;76.40
31379;DHT22;61664;48.112;11.662;2022-12-07T14:45:20;7.80;77.00
31379;DHT22;61664;48.112;11.662;2022-12-07T14:47:48;7.80;76.40
31379;DHT22;61664;48.112;11.662;2022-12-07T14:50:38;7.80;76.90
31379;DHT22;61664;48.112;11.662;2022-12-07T14:53:51;7.70;76.30
31379;DHT22;61664;48.112;11.662;2022-12-07T14:56:23;7.80;76.40
31379;DHT22;61664;48.112;11.662;2022-12-07T14:58:51;7.60;76.50
31379;DHT22;61664;48.112;11.662;2022-12-07T15:01:18;7.70;75.80
31379;DHT22;61664;48.112;11.662;2022-12-07T15:03:45;7.50;75.90
31379;DHT22;61664;48.112;11.662;2022-12-07T15:06:17;7.40;75.70
31379;DHT22;61664;48.112;11.662;2022-12-07T15:08:45;7.40;75.30
31379;DHT22;61664;48.112;11.662;2022-12-07T15:11:17;7.30;76.10
31379;DHT22;61664;48.112;11.662;2022-12-07T15:13:45;7.30;75.20
31379;DHT22;61664;48.112;11.662;2022-12-07T15:16:30;7.20;76.00
31379;DHT22;61664;48.112;11.662;2022-12-07T15:19:22;7.10;75.80
31379;DHT22;61664;48.112;11.662;2022-12-07T15:21:54;7.10;75.00
31379;DHT22;61664;48.112;11.662;2022-12-07T15:24:21;7.00;75.90
31379;DHT22;61664;48.112;11.662;2022-12-07T15:26:50;6.90;76.00
31379;DHT22;61664;48.112;11.662;2022-12-07T15:29:18;6.90;76.30
31379;DHT22;61664;48.112;11.662;2022-12-07T15:31:51;6.80;76.10
31379;DHT22;61664;48.112;11.662;2022-12-07T15:34:24;6.80;76.20
31379;DHT22;61664;48.112;11.662;2022-12-07T15:36:52;6.80;76.40
31379;DHT22;61664;48.112;11.662;2022-12-07T15:39:18;6.60;76.50
31379;DHT22;61664;48.112;11.662;2022-12-07T15:41:45;6.60;76.40
31379;DHT22;61664;48.112;11.662;2022-12-07T15:44:13;6.50;76.50
31379;DHT22;61664;48.112;11.662;2022-12-07T15:46:59;6.50;76.70
31379;DHT22;61664;48.112;11.662;2022-12-07T15:49:27;6.50;77.00
31379;DHT22;61664;48.112;11.662;2022-12-07T15:51:54;6.40;77.10
31379;DHT22;61664;48.112;11.662;2022-12-07T15:54:26;6.40;77.40
31379;DHT22;61664;48.112;11.662;2022-12-07T15:56:55;6.40;76.90
31379;DHT22;61664;48.112;11.662;2022-12-07T15:59:23;6.40;77.60
31379;DHT22;61664;48.112;11.662;2022-12-07T16:01:52;6.30;77.40
31379;DHT22;61664;48.112;11.662;2022-12-07T16:04:20;6.30;77.40
31379;DHT22;61664;48.112;11.662;2022-12-07T16:06:47;6.30;77.80
31379;DHT22;61664;48.112;11.662;2022-12-07T16:09:14;6.30;77.40
31379;DHT22;61664;48.112;11.662;2022-12-07T16:11:41;6.30;77.20
31379;DHT22;61664;48.112;11.662;2022-12-07T16:14:08;6.30;77.40
31379;DHT22;61664;48.112;11.662;2022-12-07T16:16:35;6.30;77.50
31379;DHT22;61664;48.112;11.662;2022-12-07T16:19:02;6.20;77.50
31379;DHT22;61664;48.112;11.662;2022-12-07T16:21:29;6.30;77.60
31379;DHT22;61664;48.112;11.662;2022-12-07T16:23:57;6.20;77.50
31379;DHT22;61664;48.112;11.662;2022-12-07T16:26:25;6.20;78.00
31379;DHT22;61664;48.112;11.662;2022-12-07T16:28:53;6.10;77.50
31379;DHT22;61664;48.112;11.662;2022-12-07T16:31:23;6.10;77.50
31379;DHT22;61664;48.112;11.662;2022-12-07T16:33:56;6.10;77.50
31379;DHT22;61664;48.112;11.662;2022-12-07T16:36:25;6.10;74.50
31379;DHT22;61664;48.112;11.662;2022-12-07T16:39:14;6.00;77.70
31379;DHT22;61664;48.112;11.662;2022-12-07T16:41:41;6.00;78.00
31379;DHT22;61664;48.112;11.662;2022-12-07T16:44:10;6.00;78.30
31379;DHT22;61664;48.112;11.662;2022-12-07T16:46:39;6.00;78.20
31379;DHT22;61664;48.112;11.662;2022-12-07T16:49:11;6.00;78.50
31379;DHT22;61664;48.112;11.662;2022-12-07T16:51:40;6.00;78.60
31379;DHT22;61664;48.112;11.662;2022-12-07T16:54:12;6.00;78.40
31379;DHT22;61664;48.112;11.662;2022-12-07T16:56:39;6.00;77.90
31379;DHT22;61664;48.112;11.662;2022-12-07T16:59:07;6.10;78.30
31379;DHT22;61664;48.112;11.662;2022-12-07T17:01:34;6.00;78.30
31379;DHT22;61664;48.112;11.662;2022-12-07T17:04:02;6.00;78.20
31379;DHT22;61664;48.112;11.662;2022-12-07T17:06:30;6.00;78.20
31379;DHT22;61664;48.112;11.662;2022-12-07T17:08:57;6.00;78.10
31379;DHT22;61664;48.112;11.662;2022-12-07T17:11:29;6.00;78.10
31379;DHT22;61664;48.112;11.662;2022-12-07T17:13:59;5.90;77.60
31379;DHT22;61664;48.112;11.662;2022-12-07T17:16:45;5.90;78.10
31379;DHT22;61664;48.112;11.662;2022-12-07T17:19:15;5.90;78.10
31379;DHT22;61664;48.112;11.662;2022-12-07T17:21:43;5.90;78.00
31379;DHT22;61664;48.112;11.662;2022-12-07T17:24:12;5.90;77.90
31379;DHT22;61664;48.112;11.662;2022-12-07T17:26:43;5.80;77.70
31379;DHT22;61664;48.112;11.662;2022-12-07T17:29:12;5.80;77.70
31379;DHT22;61664;48.112;11.662;2022-12-07T17:31:40;5.80;77.80
31379;DHT22;61664;48.112;11.662;2022-12-07T17:36:43;5.70;77.60
31379;DHT22;61664;48.112;11.662;2022-12-07T17:39:15;5.70;78.00
31379;DHT22;61664;48.112;11.662;2022-12-07T17:41:45;5.60;78.20
31379;DHT22;61664;48.112;11.662;2022-12-07T17:44:31;5.70;78.70
31379;DHT22;61664;48.112;11.662;2022-12-07T17:46:58;5.70;78.70
31379;DHT22;61664;48.112;11.662;2022-12-07T17:49:27;5.70;78.50
31379;DHT22;61664;48.112;11.662;2022-12-07T17:51:55;5.70;78.80
31379;DHT22;61664;48.112;11.662;2022-12-07T17:54:43;5.70;78.90
31379;DHT22;61664;48.112;11.662;2022-12-07T17:57:10;5.70;78.80
31379;DHT22;61664;48.112;11.662;2022-12-07T17:59:37;5.80;79.00
31379;DHT22;61664;48.112;11.662;2022-12-07T18:02:04;5.70;78.70
31379;DHT22;61664;48.112;11.662;2022-12-07T18:04:32;5.70;78.60
31379;DHT22;61664;48.112;11.662;2022-12-07T18:06:59;5.70;78.60